sensor_id;sensor_type;location;lat;lon;timestamp;P1;durP1;ratioP1;P2;durP2;ratioP2
4084;SDS011;2057;50.858;6.572;2023-04-25T00:00:14;10.30;;;5.23;;
4084;SDS011;2057;50.858;6.572;2023-04-25T00:02:40;24.53;;;6.57;;
4084;SDS011;2057;50.858;6.572;2023-04-25T00:05:06;19.23;;;5.27;;
4084;SDS011;2057;50.858;6.572;2023-04-25T00:07:32;26.67;;;5.87;;
4084;SDS011;2057;50.858;6.572;2023-04-25T00:09:58;19.50;;;6.30;;
4084;SDS011;2057;50.858;6.572;2023-04-25T00:12:23;15.90;;;6.03;;
4084;SDS011;2057;50.858;6.572;2023-04-25T00:14:49;27.73;;;6.53;;
4084;SDS011;2057;50.858;6.572;2023-04-25T00:17:15;21.83;;;6.07;;
4084;SDS011;2057;50.858;6.572;2023-04-25T00:19:44;25.33;;;5.77;;
4084;SDS011;2057;50.858;6.572;2023-04-25T00:22:11;17.70;;;6.07;;
4084;SDS011;2057;50.858;6.572;2023-04-25T00:24:37;21.33;;;7.53;;
4084;SDS011;2057;50.858;6.572;2023-04-25T00:27:02;22.23;;;4.83;;
4084;SDS011;2057;50.858;6.572;2023-04-25T00:29:28;35.97;;;7.50;;
4084;SDS011;2057;50.858;6.572;2023-04-25T00:31:53;13.10;;;5.70;;
4084;SDS011;2057;50.858;6.572;2023-04-25T00:34:18;21.17;;;6.13;;
4084;SDS011;2057;50.858;6.572;2023-04-25T00:36:44;28.13;;;7.17;;
4084;SDS011;2057;50.858;6.572;2023-04-25T00:39:09;18.53;;;5.53;;
4084;SDS011;2057;50.858;6.572;2023-04-25T00:41:35;20.77;;;6.60;;
4084;SDS011;2057;50.858;6.572;2023-04-25T00:44:03;25.70;;;6.33;;
4084;SDS011;2057;50.858;6.572;2023-04-25T00:46:30;12.13;;;5.80;;
4084;SDS011;2057;50.858;6.572;2023-04-25T00:48:56;24.17;;;6.67;;
4084;SDS011;2057;50.858;6.572;2023-04-25T00:51:21;23.87;;;6.17;;
4084;SDS011;2057;50.858;6.572;2023-04-25T00:53:47;24.07;;;6.80;;
4084;SDS011;2057;50.858;6.572;2023-04-25T00:56:14;23.90;;;6.55;;
4084;SDS011;2057;50.858;6.572;2023-04-25T00:58:40;32.10;;;7.00;;
4084;SDS011;2057;50.858;6.572;2023-04-25T01:01:09;19.10;;;6.50;;
4084;SDS011;2057;50.858;6.572;2023-04-25T01:03:38;15.40;;;4.60;;
4084;SDS011;2057;50.858;6.572;2023-04-25T01:06:10;29.13;;;5.87;;
4084;SDS011;2057;50.858;6.572;2023-04-25T01:08:37;16.23;;;5.93;;
4084;SDS011;2057;50.858;6.572;2023-04-25T01:11:03;21.17;;;5.60;;
4084;SDS011;2057;50.858;6.572;2023-04-25T01:13:29;17.30;;;6.10;;
4084;SDS011;2057;50.858;6.572;2023-04-25T01:15:58;30.20;;;8.07;;
4084;SDS011;2057;50.858;6.572;2023-04-25T01:18:24;13.73;;;6.10;;
4084;SDS011;2057;50.858;6.572;2023-04-25T01:20:53;14.17;;;5.87;;
4084;SDS011;2057;50.858;6.572;2023-04-25T01:23:20;25.02;;;7.85;;
4084;SDS011;2057;50.858;6.572;2023-04-25T01:25:46;27.13;;;6.97;;
4084;SDS011;2057;50.858;6.572;2023-04-25T01:28:12;25.58;;;6.57;;
4084;SDS011;2057;50.858;6.572;2023-04-25T01:30:38;30.67;;;6.90;;
4084;SDS011;2057;50.858;6.572;2023-04-25T01:33:04;32.53;;;7.73;;
4084;SDS011;2057;50.858;6.572;2023-04-25T01:35:30;24.17;;;7.33;;
4084;SDS011;2057;50.858;6.572;2023-04-25T01:37:56;33.20;;;7.80;;
4084;SDS011;2057;50.858;6.572;2023-04-25T01:40:22;28.47;;;7.50;;
4084;SDS011;2057;50.858;6.572;2023-04-25T01:42:49;33.22;;;7.45;;
4084;SDS011;2057;50.858;6.572;2023-04-25T01:45:15;25.27;;;6.37;;
4084;SDS011;2057;50.858;6.572;2023-04-25T01:47:40;27.50;;;6.70;;
4084;SDS011;2057;50.858;6.572;2023-04-25T01:50:07;28.70;;;7.40;;
4084;SDS011;2057;50.858;6.572;2023-04-25T01:52:33;23.90;;;6.80;;
4084;SDS011;2057;50.858;6.572;2023-04-25T01:54:59;38.57;;;7.27;;
4084;SDS011;2057;50.858;6.572;2023-04-25T01:57:26;29.75;;;7.28;;
4084;SDS011;2057;50.858;6.572;2023-04-25T01:59:52;27.90;;;7.27;;
4084;SDS011;2057;50.858;6.572;2023-04-25T02:02:23;27.50;;;6.85;;
4084;SDS011;2057;50.858;6.572;2023-04-25T02:04:48;18.97;;;6.13;;
4084;SDS011;2057;50.858;6.572;2023-04-25T02:07:14;30.03;;;7.60;;
4084;SDS011;2057;50.858;6.572;2023-04-25T02:09:40;16.50;;;5.43;;
4084;SDS011;2057;50.858;6.572;2023-04-25T02:12:07;28.63;;;6.93;;
4084;SDS011;2057;50.858;6.572;2023-04-25T02:14:37;34.03;;;7.45;;
4084;SDS011;2057;50.858;6.572;2023-04-25T02:17:03;24.75;;;6.93;;
4084;SDS011;2057;50.858;6.572;2023-04-25T02:19:28;20.33;;;7.37;;
4084;SDS011;2057;50.858;6.572;2023-04-25T02:21:53;21.00;;;6.40;;
4084;SDS011;2057;50.858;6.572;2023-04-25T02:24:19;30.10;;;7.10;;
4084;SDS011;2057;50.858;6.572;2023-04-25T02:26:45;18.97;;;6.93;;
4084;SDS011;2057;50.858;6.572;2023-04-25T02:29:11;26.95;;;7.97;;
4084;SDS011;2057;50.858;6.572;2023-04-25T02:31:37;23.80;;;7.20;;
4084;SDS011;2057;50.858;6.572;2023-04-25T02:34:02;22.07;;;6.83;;
4084;SDS011;2057;50.858;6.572;2023-04-25T03:20:17;27.13;;;8.45;;
4084;SDS011;2057;50.858;6.572;2023-04-25T03:22:43;37.63;;;8.80;;
4084;SDS011;2057;50.858;6.572;2023-04-25T03:25:09;32.72;;;9.05;;
4084;SDS011;2057;50.858;6.572;2023-04-25T03:27:34;20.60;;;7.23;;
4084;SDS011;2057;50.858;6.572;2023-04-25T03:30:00;25.87;;;8.83;;
4084;SDS011;2057;50.858;6.572;2023-04-25T03:32:25;29.60;;;8.70;;
4084;SDS011;2057;50.858;6.572;2023-04-25T03:34:50;30.10;;;8.17;;
4084;SDS011;2057;50.858;6.572;2023-04-25T03:37:16;14.00;;;7.17;;
4084;SDS011;2057;50.858;6.572;2023-04-25T03:39:41;56.80;;;7.97;;
4084;SDS011;2057;50.858;6.572;2023-04-25T03:42:06;22.37;;;7.67;;
4084;SDS011;2057;50.858;6.572;2023-04-25T03:44:32;50.17;;;9.60;;
4084;SDS011;2057;50.858;6.572;2023-04-25T03:46:57;19.63;;;7.90;;
4084;SDS011;2057;50.858;6.572;2023-04-25T03:49:22;27.33;;;8.90;;
4084;SDS011;2057;50.858;6.572;2023-04-25T03:51:51;23.10;;;7.28;;
4084;SDS011;2057;50.858;6.572;2023-04-25T03:54:16;17.93;;;7.97;;
4084;SDS011;2057;50.858;6.572;2023-04-25T03:56:41;16.77;;;7.63;;
4084;SDS011;2057;50.858;6.572;2023-04-25T03:59:07;31.00;;;8.53;;
4084;SDS011;2057;50.858;6.572;2023-04-25T04:01:32;26.97;;;8.60;;
4084;SDS011;2057;50.858;6.572;2023-04-25T04:03:58;26.37;;;8.60;;
4084;SDS011;2057;50.858;6.572;2023-04-25T04:06:23;23.17;;;9.30;;
4084;SDS011;2057;50.858;6.572;2023-04-25T04:08:48;22.63;;;8.70;;
4084;SDS011;2057;50.858;6.572;2023-04-25T04:11:14;25.03;;;8.30;;
4084;SDS011;2057;50.858;6.572;2023-04-25T04:13:39;32.30;;;8.33;;
4084;SDS011;2057;50.858;6.572;2023-04-25T04:16:05;21.83;;;7.93;;
4084;SDS011;2057;50.858;6.572;2023-04-25T04:18:30;27.70;;;8.97;;
4084;SDS011;2057;50.858;6.572;2023-04-25T04:20:56;26.03;;;8.10;;
4084;SDS011;2057;50.858;6.572;2023-04-25T04:23:23;28.77;;;9.15;;
4084;SDS011;2057;50.858;6.572;2023-04-25T04:25:48;25.93;;;7.87;;
4084;SDS011;2057;50.858;6.572;2023-04-25T04:28:17;42.35;;;7.57;;
4084;SDS011;2057;50.858;6.572;2023-04-25T04:30:42;19.30;;;7.70;;
4084;SDS011;2057;50.858;6.572;2023-04-25T04:33:11;48.42;;;9.25;;
4084;SDS011;2057;50.858;6.572;2023-04-25T04:35:37;28.20;;;8.60;;
4084;SDS011;2057;50.858;6.572;2023-04-25T04:38:03;28.20;;;8.40;;
4084;SDS011;2057;50.858;6.572;2023-04-25T04:40:28;26.63;;;8.40;;
4084;SDS011;2057;50.858;6.572;2023-04-25T04:42:56;20.63;;;8.20;;
4084;SDS011;2057;50.858;6.572;2023-04-25T04:45:22;25.25;;;9.48;;
4084;SDS011;2057;50.858;6.572;2023-04-25T04:47:48;32.58;;;8.00;;
4084;SDS011;2057;50.858;6.572;2023-04-25T04:50:14;31.40;;;8.87;;
4084;SDS011;2057;50.858;6.572;2023-04-25T04:52:40;34.87;;;7.43;;
4084;SDS011;2057;50.858;6.572;2023-04-25T04:55:05;24.00;;;7.47;;
4084;SDS011;2057;50.858;6.572;2023-04-25T04:57:31;33.23;;;9.00;;
4084;SDS011;2057;50.858;6.572;2023-04-25T04:59:58;27.48;;;8.10;;
4084;SDS011;2057;50.858;6.572;2023-04-25T05:02:23;25.70;;;7.27;;
4084;SDS011;2057;50.858;6.572;2023-04-25T05:04:49;26.40;;;8.80;;
4084;SDS011;2057;50.858;6.572;2023-04-25T05:07:17;35.45;;;7.85;;
4084;SDS011;2057;50.858;6.572;2023-04-25T05:09:43;26.20;;;8.63;;
4084;SDS011;2057;50.858;6.572;2023-04-25T05:12:08;30.77;;;7.80;;
4084;SDS011;2057;50.858;6.572;2023-04-25T05:14:34;23.80;;;8.47;;
4084;SDS011;2057;50.858;6.572;2023-04-25T05:16:59;25.60;;;7.60;;
4084;SDS011;2057;50.858;6.572;2023-04-25T05:19:25;23.83;;;8.80;;
4084;SDS011;2057;50.858;6.572;2023-04-25T05:21:51;28.48;;;8.13;;
4084;SDS011;2057;50.858;6.572;2023-04-25T05:24:19;35.73;;;9.27;;
4084;SDS011;2057;50.858;6.572;2023-04-25T05:26:44;30.05;;;9.13;;
4084;SDS011;2057;50.858;6.572;2023-04-25T05:29:10;39.53;;;9.00;;
4084;SDS011;2057;50.858;6.572;2023-04-25T05:31:35;34.17;;;9.53;;
4084;SDS011;2057;50.858;6.572;2023-04-25T05:34:01;27.63;;;8.33;;
4084;SDS011;2057;50.858;6.572;2023-04-25T05:36:26;29.37;;;8.00;;
4084;SDS011;2057;50.858;6.572;2023-04-25T05:38:52;31.20;;;7.90;;
4084;SDS011;2057;50.858;6.572;2023-04-25T05:41:20;33.95;;;10.45;;
4084;SDS011;2057;50.858;6.572;2023-04-25T05:43:45;33.50;;;7.63;;
4084;SDS011;2057;50.858;6.572;2023-04-25T05:46:13;49.50;;;7.68;;
4084;SDS011;2057;50.858;6.572;2023-04-25T05:48:39;28.73;;;7.13;;
4084;SDS011;2057;50.858;6.572;2023-04-25T05:51:04;19.23;;;6.70;;
4084;SDS011;2057;50.858;6.572;2023-04-25T05:53:30;28.87;;;8.40;;
4084;SDS011;2057;50.858;6.572;2023-04-25T05:55:55;20.20;;;8.03;;
4084;SDS011;2057;50.858;6.572;2023-04-25T05:58:21;38.87;;;7.73;;
4084;SDS011;2057;50.858;6.572;2023-04-25T06:00:46;30.53;;;6.80;;
4084;SDS011;2057;50.858;6.572;2023-04-25T06:03:12;23.00;;;6.70;;
4084;SDS011;2057;50.858;6.572;2023-04-25T06:05:41;29.02;;;7.90;;
4084;SDS011;2057;50.858;6.572;2023-04-25T06:08:07;43.05;;;9.07;;
4084;SDS011;2057;50.858;6.572;2023-04-25T06:10:32;35.00;;;8.03;;
4084;SDS011;2057;50.858;6.572;2023-04-25T06:12:57;41.43;;;7.10;;
4084;SDS011;2057;50.858;6.572;2023-04-25T06:15:23;15.57;;;6.83;;
4084;SDS011;2057;50.858;6.572;2023-04-25T06:17:50;24.00;;;7.68;;
4084;SDS011;2057;50.858;6.572;2023-04-25T06:20:16;27.87;;;6.60;;
4084;SDS011;2057;50.858;6.572;2023-04-25T06:22:41;28.70;;;6.87;;
4084;SDS011;2057;50.858;6.572;2023-04-25T06:25:07;29.30;;;6.70;;
4084;SDS011;2057;50.858;6.572;2023-04-25T06:27:33;33.03;;;7.90;;
4084;SDS011;2057;50.858;6.572;2023-04-25T06:29:58;34.03;;;6.20;;
4084;SDS011;2057;50.858;6.572;2023-04-25T06:32:24;35.37;;;6.83;;
4084;SDS011;2057;50.858;6.572;2023-04-25T06:34:50;29.87;;;7.37;;
4084;SDS011;2057;50.858;6.572;2023-04-25T06:37:15;28.50;;;6.73;;
4084;SDS011;2057;50.858;6.572;2023-04-25T06:39:41;21.37;;;6.20;;
4084;SDS011;2057;50.858;6.572;2023-04-25T06:42:06;23.13;;;5.37;;
4084;SDS011;2057;50.858;6.572;2023-04-25T06:44:31;34.70;;;7.77;;
4084;SDS011;2057;50.858;6.572;2023-04-25T06:46:57;26.03;;;8.40;;
4084;SDS011;2057;50.858;6.572;2023-04-25T06:49:22;38.47;;;6.20;;
4084;SDS011;2057;50.858;6.572;2023-04-25T06:51:47;27.13;;;6.60;;
4084;SDS011;2057;50.858;6.572;2023-04-25T06:54:12;25.00;;;7.10;;
4084;SDS011;2057;50.858;6.572;2023-04-25T06:56:38;20.43;;;5.30;;
4084;SDS011;2057;50.858;6.572;2023-04-25T06:59:03;22.00;;;5.57;;
4084;SDS011;2057;50.858;6.572;2023-04-25T07:01:31;26.02;;;5.68;;
4084;SDS011;2057;50.858;6.572;2023-04-25T07:03:56;36.37;;;6.57;;
4084;SDS011;2057;50.858;6.572;2023-04-25T07:06:21;23.77;;;5.37;;
4084;SDS011;2057;50.858;6.572;2023-04-25T07:08:47;30.83;;;5.60;;
4084;SDS011;2057;50.858;6.572;2023-04-25T07:11:12;22.57;;;5.50;;
4084;SDS011;2057;50.858;6.572;2023-04-25T07:13:41;28.38;;;6.38;;
4084;SDS011;2057;50.858;6.572;2023-04-25T07:16:06;25.97;;;6.47;;
4084;SDS011;2057;50.858;6.572;2023-04-25T07:18:31;30.53;;;5.37;;
4084;SDS011;2057;50.858;6.572;2023-04-25T07:20:57;22.03;;;5.03;;
4084;SDS011;2057;50.858;6.572;2023-04-25T07:23:22;26.67;;;5.73;;
4084;SDS011;2057;50.858;6.572;2023-04-25T07:25:47;28.60;;;7.50;;
4084;SDS011;2057;50.858;6.572;2023-04-25T07:28:13;39.73;;;5.00;;
4084;SDS011;2057;50.858;6.572;2023-04-25T07:30:38;22.07;;;6.13;;
4084;SDS011;2057;50.858;6.572;2023-04-25T07:33:03;15.07;;;4.27;;
4084;SDS011;2057;50.858;6.572;2023-04-25T07:35:31;16.63;;;4.20;;
4084;SDS011;2057;50.858;6.572;2023-04-25T07:37:57;24.50;;;5.07;;
4084;SDS011;2057;50.858;6.572;2023-04-25T07:40:22;15.23;;;3.83;;
4084;SDS011;2057;50.858;6.572;2023-04-25T07:43:06;24.30;;;4.70;;
4084;SDS011;2057;50.858;6.572;2023-04-25T07:45:31;21.92;;;4.88;;
4084;SDS011;2057;50.858;6.572;2023-04-25T07:47:57;21.23;;;5.03;;
4084;SDS011;2057;50.858;6.572;2023-04-25T07:50:22;19.07;;;4.63;;
4084;SDS011;2057;50.858;6.572;2023-04-25T07:52:47;18.53;;;5.20;;
4084;SDS011;2057;50.858;6.572;2023-04-25T07:55:13;19.97;;;4.30;;
4084;SDS011;2057;50.858;6.572;2023-04-25T07:57:38;23.57;;;5.13;;
4084;SDS011;2057;50.858;6.572;2023-04-25T08:00:04;30.00;;;5.03;;
4084;SDS011;2057;50.858;6.572;2023-04-25T08:02:34;14.55;;;5.32;;
4084;SDS011;2057;50.858;6.572;2023-04-25T08:05:01;21.40;;;5.07;;
4084;SDS011;2057;50.858;6.572;2023-04-25T08:07:27;19.67;;;3.90;;
4084;SDS011;2057;50.858;6.572;2023-04-25T08:09:53;18.90;;;4.23;;
4084;SDS011;2057;50.858;6.572;2023-04-25T08:12:19;16.47;;;4.67;;
4084;SDS011;2057;50.858;6.572;2023-04-25T08:14:44;22.57;;;4.30;;
4084;SDS011;2057;50.858;6.572;2023-04-25T08:17:10;16.97;;;4.10;;
4084;SDS011;2057;50.858;6.572;2023-04-25T08:19:35;27.60;;;4.77;;
4084;SDS011;2057;50.858;6.572;2023-04-25T08:22:01;20.73;;;3.30;;
4084;SDS011;2057;50.858;6.572;2023-04-25T08:24:26;18.60;;;4.33;;
4084;SDS011;2057;50.858;6.572;2023-04-25T08:26:54;19.87;;;4.07;;
4084;SDS011;2057;50.858;6.572;2023-04-25T08:29:19;26.40;;;4.03;;
4084;SDS011;2057;50.858;6.572;2023-04-25T08:31:44;16.63;;;4.53;;
4084;SDS011;2057;50.858;6.572;2023-04-25T08:34:10;23.00;;;4.63;;
4084;SDS011;2057;50.858;6.572;2023-04-25T08:36:36;22.13;;;3.93;;
4084;SDS011;2057;50.858;6.572;2023-04-25T08:39:01;16.20;;;3.13;;
4084;SDS011;2057;50.858;6.572;2023-04-25T08:41:27;9.57;;;2.77;;
4084;SDS011;2057;50.858;6.572;2023-04-25T08:43:52;17.67;;;3.27;;
4084;SDS011;2057;50.858;6.572;2023-04-25T08:46:20;16.80;;;4.50;;
4084;SDS011;2057;50.858;6.572;2023-04-25T08:48:46;29.07;;;4.27;;
4084;SDS011;2057;50.858;6.572;2023-04-25T08:51:33;15.70;;;4.17;;
4084;SDS011;2057;50.858;6.572;2023-04-25T08:53:59;18.10;;;4.43;;
4084;SDS011;2057;50.858;6.572;2023-04-25T08:56:36;15.20;;;4.03;;
4084;SDS011;2057;50.858;6.572;2023-04-25T08:59:03;10.80;;;3.03;;
4084;SDS011;2057;50.858;6.572;2023-04-25T09:01:31;14.43;;;3.37;;
4084;SDS011;2057;50.858;6.572;2023-04-25T09:03:59;13.43;;;3.20;;
4084;SDS011;2057;50.858;6.572;2023-04-25T09:06:25;15.67;;;3.57;;
4084;SDS011;2057;50.858;6.572;2023-04-25T09:08:51;13.07;;;3.30;;
4084;SDS011;2057;50.858;6.572;2023-04-25T09:11:18;13.20;;;3.53;;
4084;SDS011;2057;50.858;6.572;2023-04-25T09:13:44;15.97;;;3.43;;
4084;SDS011;2057;50.858;6.572;2023-04-25T09:16:10;12.63;;;3.20;;
4084;SDS011;2057;50.858;6.572;2023-04-25T09:18:36;12.30;;;3.80;;
4084;SDS011;2057;50.858;6.572;2023-04-25T09:21:06;19.07;;;3.90;;
4084;SDS011;2057;50.858;6.572;2023-04-25T09:23:38;17.33;;;3.37;;
4084;SDS011;2057;50.858;6.572;2023-04-25T09:26:06;18.07;;;4.10;;
4084;SDS011;2057;50.858;6.572;2023-04-25T09:28:32;18.60;;;3.60;;
4084;SDS011;2057;50.858;6.572;2023-04-25T09:31:00;20.83;;;3.40;;
4084;SDS011;2057;50.858;6.572;2023-04-25T09:33:32;11.07;;;3.13;;
4084;SDS011;2057;50.858;6.572;2023-04-25T09:36:04;20.27;;;4.20;;
4084;SDS011;2057;50.858;6.572;2023-04-25T09:38:32;10.03;;;2.57;;
4084;SDS011;2057;50.858;6.572;2023-04-25T09:41:06;15.50;;;3.27;;
4084;SDS011;2057;50.858;6.572;2023-04-25T09:43:32;10.63;;;2.90;;
4084;SDS011;2057;50.858;6.572;2023-04-25T09:45:58;20.70;;;3.73;;
4084;SDS011;2057;50.858;6.572;2023-04-25T09:48:25;14.20;;;3.70;;
4084;SDS011;2057;50.858;6.572;2023-04-25T09:51:04;23.83;;;3.97;;
4084;SDS011;2057;50.858;6.572;2023-04-25T09:53:39;21.33;;;5.70;;
4084;SDS011;2057;50.858;6.572;2023-04-25T09:56:07;18.50;;;3.60;;
4084;SDS011;2057;50.858;6.572;2023-04-25T09:58:36;13.03;;;4.03;;
4084;SDS011;2057;50.858;6.572;2023-04-25T10:01:04;21.27;;;3.40;;
4084;SDS011;2057;50.858;6.572;2023-04-25T10:03:32;28.50;;;4.00;;
4084;SDS011;2057;50.858;6.572;2023-04-25T10:06:00;16.53;;;4.77;;
4084;SDS011;2057;50.858;6.572;2023-04-25T10:08:32;17.60;;;4.60;;
4084;SDS011;2057;50.858;6.572;2023-04-25T10:11:00;16.63;;;4.77;;
4084;SDS011;2057;50.858;6.572;2023-04-25T10:13:27;13.83;;;3.67;;
4084;SDS011;2057;50.858;6.572;2023-04-25T10:15:54;12.30;;;4.70;;
4084;SDS011;2057;50.858;6.572;2023-04-25T10:18:20;20.73;;;3.77;;
4084;SDS011;2057;50.858;6.572;2023-04-25T10:20:46;17.17;;;3.90;;
4084;SDS011;2057;50.858;6.572;2023-04-25T10:23:14;21.70;;;3.43;;
4084;SDS011;2057;50.858;6.572;2023-04-25T10:25:40;15.37;;;3.63;;
4084;SDS011;2057;50.858;6.572;2023-04-25T10:28:07;13.37;;;3.63;;
4084;SDS011;2057;50.858;6.572;2023-04-25T10:30:32;20.47;;;4.63;;
4084;SDS011;2057;50.858;6.572;2023-04-25T10:32:58;26.17;;;4.33;;
4084;SDS011;2057;50.858;6.572;2023-04-25T10:35:25;16.87;;;4.13;;
4084;SDS011;2057;50.858;6.572;2023-04-25T10:38:11;23.03;;;3.90;;
4084;SDS011;2057;50.858;6.572;2023-04-25T10:40:39;12.03;;;3.33;;
4084;SDS011;2057;50.858;6.572;2023-04-25T10:46:16;9.47;;;3.57;;
4084;SDS011;2057;50.858;6.572;2023-04-25T10:51:21;12.10;;;3.83;;
4084;SDS011;2057;50.858;6.572;2023-04-25T10:56:20;9.73;;;2.87;;
4084;SDS011;2057;50.858;6.572;2023-04-25T11:01:51;11.23;;;3.30;;
4084;SDS011;2057;50.858;6.572;2023-04-25T11:04:30;10.73;;;3.00;;
4084;SDS011;2057;50.858;6.572;2023-04-25T11:07:21;22.23;;;4.13;;
4084;SDS011;2057;50.858;6.572;2023-04-25T11:09:53;10.47;;;2.93;;
4084;SDS011;2057;50.858;6.572;2023-04-25T11:12:19;12.70;;;4.50;;
4084;SDS011;2057;50.858;6.572;2023-04-25T11:14:44;15.73;;;4.13;;
4084;SDS011;2057;50.858;6.572;2023-04-25T11:17:10;14.37;;;3.50;;
4084;SDS011;2057;50.858;6.572;2023-04-25T11:19:41;13.17;;;3.80;;
4084;SDS011;2057;50.858;6.572;2023-04-25T11:22:07;15.40;;;3.63;;
4084;SDS011;2057;50.858;6.572;2023-04-25T11:24:33;15.13;;;3.63;;
4084;SDS011;2057;50.858;6.572;2023-04-25T11:27:00;20.87;;;3.83;;
4084;SDS011;2057;50.858;6.572;2023-04-25T11:29:29;21.13;;;4.20;;
4084;SDS011;2057;50.858;6.572;2023-04-25T11:31:56;22.97;;;4.83;;
4084;SDS011;2057;50.858;6.572;2023-04-25T11:34:23;25.73;;;3.80;;
4084;SDS011;2057;50.858;6.572;2023-04-25T11:36:49;23.73;;;3.73;;
4084;SDS011;2057;50.858;6.572;2023-04-25T11:39:17;12.00;;;3.10;;
4084;SDS011;2057;50.858;6.572;2023-04-25T11:41:44;10.63;;;3.53;;
4084;SDS011;2057;50.858;6.572;2023-04-25T11:44:09;9.70;;;3.40;;
4084;SDS011;2057;50.858;6.572;2023-04-25T11:46:35;16.37;;;3.13;;
4084;SDS011;2057;50.858;6.572;2023-04-25T11:49:00;11.47;;;3.33;;
4084;SDS011;2057;50.858;6.572;2023-04-25T11:51:28;6.80;;;2.80;;
4084;SDS011;2057;50.858;6.572;2023-04-25T11:53:55;15.13;;;4.33;;
4084;SDS011;2057;50.858;6.572;2023-04-25T11:56:20;14.03;;;3.80;;
4084;SDS011;2057;50.858;6.572;2023-04-25T11:58:57;8.43;;;3.20;;
4084;SDS011;2057;50.858;6.572;2023-04-25T12:01:31;14.77;;;4.40;;
4084;SDS011;2057;50.858;6.572;2023-04-25T12:03:58;22.10;;;3.70;;
4084;SDS011;2057;50.858;6.572;2023-04-25T12:06:36;14.33;;;3.70;;
4084;SDS011;2057;50.858;6.572;2023-04-25T12:09:06;12.80;;;3.10;;
4084;SDS011;2057;50.858;6.572;2023-04-25T12:11:35;18.70;;;3.13;;
4084;SDS011;2057;50.858;6.572;2023-04-25T12:14:05;10.60;;;3.20;;
4084;SDS011;2057;50.858;6.572;2023-04-25T12:16:41;12.47;;;4.17;;
4084;SDS011;2057;50.858;6.572;2023-04-25T12:19:07;17.30;;;3.90;;
4084;SDS011;2057;50.858;6.572;2023-04-25T12:21:32;9.67;;;3.43;;
4084;SDS011;2057;50.858;6.572;2023-04-25T12:24:14;12.73;;;3.10;;
4084;SDS011;2057;50.858;6.572;2023-04-25T12:26:50;17.23;;;3.40;;
4084;SDS011;2057;50.858;6.572;2023-04-25T12:29:19;10.63;;;3.53;;
4084;SDS011;2057;50.858;6.572;2023-04-25T12:31:46;14.50;;;3.00;;
4084;SDS011;2057;50.858;6.572;2023-04-25T12:34:12;8.03;;;3.07;;
4084;SDS011;2057;50.858;6.572;2023-04-25T12:36:37;16.60;;;3.60;;
4084;SDS011;2057;50.858;6.572;2023-04-25T12:39:05;12.10;;;3.83;;
4084;SDS011;2057;50.858;6.572;2023-04-25T12:41:31;12.40;;;3.63;;
4084;SDS011;2057;50.858;6.572;2023-04-25T12:43:56;11.37;;;3.23;;
4084;SDS011;2057;50.858;6.572;2023-04-25T12:46:22;10.30;;;3.53;;
4084;SDS011;2057;50.858;6.572;2023-04-25T12:48:50;22.43;;;3.00;;
4084;SDS011;2057;50.858;6.572;2023-04-25T12:51:16;13.63;;;3.40;;
4084;SDS011;2057;50.858;6.572;2023-04-25T12:53:41;16.93;;;2.70;;
4084;SDS011;2057;50.858;6.572;2023-04-25T12:56:07;11.97;;;3.00;;
4084;SDS011;2057;50.858;6.572;2023-04-25T12:58:33;16.93;;;3.07;;
4084;SDS011;2057;50.858;6.572;2023-04-25T13:00:58;9.20;;;2.73;;
4084;SDS011;2057;50.858;6.572;2023-04-25T13:03:24;8.23;;;2.90;;
4084;SDS011;2057;50.858;6.572;2023-04-25T13:05:50;11.83;;;3.20;;
4084;SDS011;2057;50.858;6.572;2023-04-25T13:08:17;9.07;;;3.07;;
4084;SDS011;2057;50.858;6.572;2023-04-25T13:10:43;15.67;;;3.03;;
4084;SDS011;2057;50.858;6.572;2023-04-25T13:13:08;15.83;;;3.00;;
4084;SDS011;2057;50.858;6.572;2023-04-25T13:15:34;15.57;;;2.90;;
4084;SDS011;2057;50.858;6.572;2023-04-25T13:18:00;14.80;;;2.33;;
4084;SDS011;2057;50.858;6.572;2023-04-25T13:20:28;4.60;;;2.30;;
4084;SDS011;2057;50.858;6.572;2023-04-25T13:22:53;15.87;;;2.90;;
4084;SDS011;2057;50.858;6.572;2023-04-25T13:25:18;12.83;;;3.17;;
4084;SDS011;2057;50.858;6.572;2023-04-25T13:27:44;6.40;;;2.47;;
4084;SDS011;2057;50.858;6.572;2023-04-25T13:30:09;12.83;;;2.33;;
4084;SDS011;2057;50.858;6.572;2023-04-25T13:32:35;14.20;;;2.97;;
4084;SDS011;2057;50.858;6.572;2023-04-25T13:35:09;8.83;;;3.60;;
4084;SDS011;2057;50.858;6.572;2023-04-25T13:37:36;10.97;;;3.03;;
4084;SDS011;2057;50.858;6.572;2023-04-25T13:40:03;10.97;;;3.17;;
4084;SDS011;2057;50.858;6.572;2023-04-25T13:42:30;12.50;;;2.53;;
4084;SDS011;2057;50.858;6.572;2023-04-25T13:44:56;16.93;;;2.80;;
4084;SDS011;2057;50.858;6.572;2023-04-25T13:47:22;12.67;;;2.80;;
4084;SDS011;2057;50.858;6.572;2023-04-25T13:49:48;9.10;;;3.10;;
4084;SDS011;2057;50.858;6.572;2023-04-25T13:52:13;5.07;;;2.87;;
4084;SDS011;2057;50.858;6.572;2023-04-25T13:54:39;7.60;;;2.60;;
4084;SDS011;2057;50.858;6.572;2023-04-25T13:57:04;6.20;;;2.83;;
4084;SDS011;2057;50.858;6.572;2023-04-25T13:59:30;10.43;;;3.03;;
4084;SDS011;2057;50.858;6.572;2023-04-25T14:01:56;10.00;;;2.17;;
4084;SDS011;2057;50.858;6.572;2023-04-25T14:04:21;6.97;;;3.17;;
4084;SDS011;2057;50.858;6.572;2023-04-25T14:06:48;9.83;;;3.67;;
4084;SDS011;2057;50.858;6.572;2023-04-25T14:09:17;8.43;;;2.87;;
4084;SDS011;2057;50.858;6.572;2023-04-25T14:11:45;3.87;;;2.20;;
4084;SDS011;2057;50.858;6.572;2023-04-25T14:14:13;10.83;;;2.37;;
4084;SDS011;2057;50.858;6.572;2023-04-25T14:16:41;11.90;;;2.37;;
4084;SDS011;2057;50.858;6.572;2023-04-25T14:19:06;6.13;;;2.00;;
4084;SDS011;2057;50.858;6.572;2023-04-25T14:21:31;9.50;;;2.60;;
4084;SDS011;2057;50.858;6.572;2023-04-25T14:23:57;7.23;;;2.40;;
4084;SDS011;2057;50.858;6.572;2023-04-25T14:26:23;6.13;;;2.47;;
4084;SDS011;2057;50.858;6.572;2023-04-25T14:28:51;13.50;;;3.23;;
4084;SDS011;2057;50.858;6.572;2023-04-25T14:31:17;8.33;;;3.30;;
4084;SDS011;2057;50.858;6.572;2023-04-25T14:33:42;7.70;;;2.80;;
4084;SDS011;2057;50.858;6.572;2023-04-25T14:36:08;6.13;;;2.93;;
4084;SDS011;2057;50.858;6.572;2023-04-25T14:38:34;15.63;;;2.83;;
4084;SDS011;2057;50.858;6.572;2023-04-25T14:41:03;7.53;;;3.57;;
4084;SDS011;2057;50.858;6.572;2023-04-25T14:43:28;8.40;;;2.40;;
4084;SDS011;2057;50.858;6.572;2023-04-25T14:45:54;5.77;;;2.10;;
4084;SDS011;2057;50.858;6.572;2023-04-25T14:48:19;10.37;;;3.30;;
4084;SDS011;2057;50.858;6.572;2023-04-25T14:50:45;21.67;;;2.37;;
4084;SDS011;2057;50.858;6.572;2023-04-25T14:53:11;6.43;;;2.03;;
4084;SDS011;2057;50.858;6.572;2023-04-25T14:55:37;5.80;;;2.40;;
4084;SDS011;2057;50.858;6.572;2023-04-25T14:58:02;11.37;;;3.17;;
4084;SDS011;2057;50.858;6.572;2023-04-25T15:00:28;7.23;;;2.37;;
4084;SDS011;2057;50.858;6.572;2023-04-25T15:02:53;10.90;;;3.13;;
4084;SDS011;2057;50.858;6.572;2023-04-25T15:05:18;4.67;;;2.80;;
4084;SDS011;2057;50.858;6.572;2023-04-25T15:07:44;10.63;;;2.53;;
4084;SDS011;2057;50.858;6.572;2023-04-25T15:10:10;13.80;;;2.30;;
4084;SDS011;2057;50.858;6.572;2023-04-25T15:12:42;7.03;;;2.53;;
4084;SDS011;2057;50.858;6.572;2023-04-25T15:15:08;7.83;;;2.73;;
4084;SDS011;2057;50.858;6.572;2023-04-25T15:17:40;10.20;;;1.70;;
4084;SDS011;2057;50.858;6.572;2023-04-25T15:20:07;7.70;;;1.80;;
4084;SDS011;2057;50.858;6.572;2023-04-25T15:22:37;8.70;;;2.13;;
4084;SDS011;2057;50.858;6.572;2023-04-25T15:25:03;8.63;;;2.40;;
4084;SDS011;2057;50.858;6.572;2023-04-25T15:27:32;5.97;;;1.90;;
4084;SDS011;2057;50.858;6.572;2023-04-25T15:30:09;5.37;;;2.37;;
4084;SDS011;2057;50.858;6.572;2023-04-25T15:32:36;7.17;;;2.10;;
4084;SDS011;2057;50.858;6.572;2023-04-25T15:35:05;7.43;;;2.10;;
4084;SDS011;2057;50.858;6.572;2023-04-25T15:37:31;12.27;;;2.10;;
4084;SDS011;2057;50.858;6.572;2023-04-25T15:40:01;5.63;;;2.80;;
4084;SDS011;2057;50.858;6.572;2023-04-25T15:42:39;7.83;;;3.80;;
4084;SDS011;2057;50.858;6.572;2023-04-25T15:45:07;8.43;;;2.20;;
4084;SDS011;2057;50.858;6.572;2023-04-25T15:47:36;13.20;;;2.50;;
4084;SDS011;2057;50.858;6.572;2023-04-25T15:50:03;10.50;;;2.60;;
4084;SDS011;2057;50.858;6.572;2023-04-25T15:52:31;11.73;;;2.37;;
4084;SDS011;2057;50.858;6.572;2023-04-25T15:54:57;4.90;;;2.07;;